sensor_id;sensor_type;location;lat;lon;timestamp;P1;durP1;ratioP1;P2;durP2;ratioP2
77876;SDS011;67251;50.844;7.978;2023-12-20T00:01:23;4.82;;;1.52;;
77876;SDS011;67251;50.844;7.978;2023-12-20T00:03:48;3.80;;;1.42;;
77876;SDS011;67251;50.844;7.978;2023-12-20T00:06:14;4.25;;;1.52;;
77876;SDS011;67251;50.844;7.978;2023-12-20T00:08:39;3.65;;;1.60;;
77876;SDS011;67251;50.844;7.978;2023-12-20T00:11:05;4.07;;;1.52;;
77876;SDS011;67251;50.844;7.978;2023-12-20T00:13:30;3.67;;;1.30;;
77876;SDS011;67251;50.844;7.978;2023-12-20T00:15:56;4.15;;;1.58;;
77876;SDS011;67251;50.844;7.978;2023-12-20T00:18:21;4.10;;;1.60;;
77876;SDS011;67251;50.844;7.978;2023-12-20T00:20:46;4.20;;;1.60;;
77876;SDS011;67251;50.844;7.978;2023-12-20T00:23:13;4.00;;;1.42;;
77876;SDS011;67251;50.844;7.978;2023-12-20T00:25:39;4.72;;;1.40;;
77876;SDS011;67251;50.844;7.978;2023-12-20T00:28:04;5.35;;;1.52;;
77876;SDS011;67251;50.844;7.978;2023-12-20T00:30:30;4.15;;;1.42;;
77876;SDS011;67251;50.844;7.978;2023-12-20T00:32:55;3.00;;;1.25;;
77876;SDS011;67251;50.844;7.978;2023-12-20T00:35:21;3.17;;;1.27;;
77876;SDS011;67251;50.844;7.978;2023-12-20T00:37:46;3.65;;;1.30;;
77876;SDS011;67251;50.844;7.978;2023-12-20T00:40:12;3.20;;;1.13;;
77876;SDS011;67251;50.844;7.978;2023-12-20T00:42:37;3.65;;;1.40;;
77876;SDS011;67251;50.844;7.978;2023-12-20T00:45:02;3.67;;;1.35;;
77876;SDS011;67251;50.844;7.978;2023-12-20T00:47:29;3.28;;;1.33;;
77876;SDS011;67251;50.844;7.978;2023-12-20T00:49:55;4.20;;;1.52;;
77876;SDS011;67251;50.844;7.978;2023-12-20T00:52:21;3.67;;;1.77;;
77876;SDS011;67251;50.844;7.978;2023-12-20T00:54:47;4.20;;;1.40;;
77876;SDS011;67251;50.844;7.978;2023-12-20T00:57:13;3.50;;;1.40;;
77876;SDS011;67251;50.844;7.978;2023-12-20T00:59:38;4.40;;;1.35;;
77876;SDS011;67251;50.844;7.978;2023-12-20T01:02:04;4.55;;;1.50;;
77876;SDS011;67251;50.844;7.978;2023-12-20T01:04:29;5.47;;;1.88;;
77876;SDS011;67251;50.844;7.978;2023-12-20T01:06:54;3.28;;;1.50;;
77876;SDS011;67251;50.844;7.978;2023-12-20T01:09:20;4.32;;;1.83;;
77876;SDS011;67251;50.844;7.978;2023-12-20T01:11:48;4.20;;;1.63;;
77876;SDS011;67251;50.844;7.978;2023-12-20T01:14:14;3.45;;;1.27;;
77876;SDS011;67251;50.844;7.978;2023-12-20T01:16:39;3.53;;;1.23;;
77876;SDS011;67251;50.844;7.978;2023-12-20T01:19:05;3.13;;;1.30;;
77876;SDS011;67251;50.844;7.978;2023-12-20T01:21:30;4.63;;;1.52;;
77876;SDS011;67251;50.844;7.978;2023-12-20T01:23:55;2.97;;;1.10;;
77876;SDS011;67251;50.844;7.978;2023-12-20T01:26:21;3.00;;;1.25;;
77876;SDS011;67251;50.844;7.978;2023-12-20T01:28:46;4.05;;;1.52;;
77876;SDS011;67251;50.844;7.978;2023-12-20T01:31:12;3.40;;;1.20;;
77876;SDS011;67251;50.844;7.978;2023-12-20T01:33:37;2.83;;;1.13;;
77876;SDS011;67251;50.844;7.978;2023-12-20T01:36:03;3.45;;;1.30;;
77876;SDS011;67251;50.844;7.978;2023-12-20T01:38:29;3.03;;;1.10;;
77876;SDS011;67251;50.844;7.978;2023-12-20T01:40:54;3.20;;;1.00;;
77876;SDS011;67251;50.844;7.978;2023-12-20T01:46:48;4.15;;;1.10;;
77876;SDS011;67251;50.844;7.978;2023-12-20T01:49:15;2.83;;;0.98;;
77876;SDS011;67251;50.844;7.978;2023-12-20T01:51:41;3.33;;;1.00;;
77876;SDS011;67251;50.844;7.978;2023-12-20T01:54:07;2.92;;;1.10;;
77876;SDS011;67251;50.844;7.978;2023-12-20T01:56:32;3.67;;;1.40;;
77876;SDS011;67251;50.844;7.978;2023-12-20T01:58:58;0.88;;;0.30;;
77876;SDS011;67251;50.844;7.978;2023-12-20T02:01:25;1.17;;;0.30;;
77876;SDS011;67251;50.844;7.978;2023-12-20T02:03:53;4.07;;;1.00;;
77876;SDS011;67251;50.844;7.978;2023-12-20T02:06:19;2.65;;;0.70;;
77876;SDS011;67251;50.844;7.978;2023-12-20T02:08:47;2.15;;;0.63;;
77876;SDS011;67251;50.844;7.978;2023-12-20T02:11:14;4.82;;;0.90;;
77876;SDS011;67251;50.844;7.978;2023-12-20T02:13:40;3.60;;;0.93;;
77876;SDS011;67251;50.844;7.978;2023-12-20T02:16:05;3.78;;;1.15;;
77876;SDS011;67251;50.844;7.978;2023-12-20T02:18:32;3.97;;;1.30;;
77876;SDS011;67251;50.844;7.978;2023-12-20T02:20:58;3.50;;;1.10;;
77876;SDS011;67251;50.844;7.978;2023-12-20T02:23:23;4.68;;;1.30;;
77876;SDS011;67251;50.844;7.978;2023-12-20T02:25:49;3.63;;;1.25;;
77876;SDS011;67251;50.844;7.978;2023-12-20T02:28:14;4.38;;;1.05;;
77876;SDS011;67251;50.844;7.978;2023-12-20T02:30:40;3.55;;;1.02;;
77876;SDS011;67251;50.844;7.978;2023-12-20T02:33:07;5.40;;;0.85;;
77876;SDS011;67251;50.844;7.978;2023-12-20T02:35:35;3.10;;;0.93;;
77876;SDS011;67251;50.844;7.978;2023-12-20T02:38:00;4.32;;;1.17;;
77876;SDS011;67251;50.844;7.978;2023-12-20T02:40:26;4.43;;;0.80;;
77876;SDS011;67251;50.844;7.978;2023-12-20T02:42:51;5.93;;;1.42;;
77876;SDS011;67251;50.844;7.978;2023-12-20T02:45:16;4.03;;;1.00;;
77876;SDS011;67251;50.844;7.978;2023-12-20T02:47:42;5.82;;;1.08;;
77876;SDS011;67251;50.844;7.978;2023-12-20T02:50:07;3.38;;;1.00;;
77876;SDS011;67251;50.844;7.978;2023-12-20T02:52:33;4.38;;;1.17;;
77876;SDS011;67251;50.844;7.978;2023-12-20T02:54:58;4.68;;;1.10;;
77876;SDS011;67251;50.844;7.978;2023-12-20T02:57:23;2.72;;;0.70;;
77876;SDS011;67251;50.844;7.978;2023-12-20T02:59:49;4.55;;;1.05;;
77876;SDS011;67251;50.844;7.978;2023-12-20T03:02:14;6.10;;;1.70;;
77876;SDS011;67251;50.844;7.978;2023-12-20T03:04:40;3.08;;;1.20;;
77876;SDS011;67251;50.844;7.978;2023-12-20T03:07:05;4.85;;;1.35;;
77876;SDS011;67251;50.844;7.978;2023-12-20T03:09:30;4.75;;;1.70;;
77876;SDS011;67251;50.844;7.978;2023-12-20T03:11:56;4.95;;;1.45;;
77876;SDS011;67251;50.844;7.978;2023-12-20T03:14:21;5.13;;;1.25;;
77876;SDS011;67251;50.844;7.978;2023-12-20T03:16:48;4.00;;;1.40;;
77876;SDS011;67251;50.844;7.978;2023-12-20T03:19:15;7.53;;;2.10;;
77876;SDS011;67251;50.844;7.978;2023-12-20T03:21:41;3.40;;;1.25;;
77876;SDS011;67251;50.844;7.978;2023-12-20T03:24:06;6.07;;;1.50;;
77876;SDS011;67251;50.844;7.978;2023-12-20T03:26:32;5.18;;;1.35;;
77876;SDS011;67251;50.844;7.978;2023-12-20T03:28:57;3.70;;;1.27;;
77876;SDS011;67251;50.844;7.978;2023-12-20T03:31:22;4.72;;;1.42;;
77876;SDS011;67251;50.844;7.978;2023-12-20T03:33:48;4.45;;;1.20;;
77876;SDS011;67251;50.844;7.978;2023-12-20T03:36:13;7.85;;;2.25;;
77876;SDS011;67251;50.844;7.978;2023-12-20T03:38:38;3.78;;;1.15;;
77876;SDS011;67251;50.844;7.978;2023-12-20T03:41:04;4.07;;;1.55;;
77876;SDS011;67251;50.844;7.978;2023-12-20T03:43:29;4.82;;;1.75;;
77876;SDS011;67251;50.844;7.978;2023-12-20T03:45:54;7.60;;;2.00;;
77876;SDS011;67251;50.844;7.978;2023-12-20T03:48:20;5.22;;;2.08;;
77876;SDS011;67251;50.844;7.978;2023-12-20T03:50:45;5.07;;;2.00;;
77876;SDS011;67251;50.844;7.978;2023-12-20T03:53:10;5.45;;;1.85;;
77876;SDS011;67251;50.844;7.978;2023-12-20T03:55:36;6.63;;;1.98;;
77876;SDS011;67251;50.844;7.978;2023-12-20T03:58:01;6.57;;;2.10;;
77876;SDS011;67251;50.844;7.978;2023-12-20T04:00:26;9.60;;;2.42;;
77876;SDS011;67251;50.844;7.978;2023-12-20T04:02:52;5.35;;;1.77;;
77876;SDS011;67251;50.844;7.978;2023-12-20T04:05:17;7.10;;;2.55;;
77876;SDS011;67251;50.844;7.978;2023-12-20T04:07:43;10.07;;;2.72;;
77876;SDS011;67251;50.844;7.978;2023-12-20T04:10:08;10.25;;;2.22;;
77876;SDS011;67251;50.844;7.978;2023-12-20T04:12:34;6.55;;;2.50;;
77876;SDS011;67251;50.844;7.978;2023-12-20T04:14:59;6.90;;;1.90;;
77876;SDS011;67251;50.844;7.978;2023-12-20T04:17:25;6.88;;;2.38;;
77876;SDS011;67251;50.844;7.978;2023-12-20T04:19:50;6.20;;;2.03;;
77876;SDS011;67251;50.844;7.978;2023-12-20T04:22:19;8.20;;;2.55;;
77876;SDS011;67251;50.844;7.978;2023-12-20T04:24:45;8.38;;;2.30;;
77876;SDS011;67251;50.844;7.978;2023-12-20T04:27:10;7.50;;;2.92;;
77876;SDS011;67251;50.844;7.978;2023-12-20T04:29:36;7.25;;;2.65;;
77876;SDS011;67251;50.844;7.978;2023-12-20T04:32:01;8.45;;;2.65;;
77876;SDS011;67251;50.844;7.978;2023-12-20T04:34:27;6.68;;;2.03;;
77876;SDS011;67251;50.844;7.978;2023-12-20T04:36:52;5.70;;;2.13;;
77876;SDS011;67251;50.844;7.978;2023-12-20T04:39:18;7.57;;;2.28;;
77876;SDS011;67251;50.844;7.978;2023-12-20T04:41:43;8.60;;;2.15;;
77876;SDS011;67251;50.844;7.978;2023-12-20T04:44:09;5.82;;;2.45;;
77876;SDS011;67251;50.844;7.978;2023-12-20T04:46:34;9.02;;;2.00;;
77876;SDS011;67251;50.844;7.978;2023-12-20T04:49:00;7.72;;;1.85;;
77876;SDS011;67251;50.844;7.978;2023-12-20T04:51:25;10.15;;;1.60;;
77876;SDS011;67251;50.844;7.978;2023-12-20T04:53:51;5.07;;;1.55;;
77876;SDS011;67251;50.844;7.978;2023-12-20T04:56:16;5.55;;;2.42;;
77876;SDS011;67251;50.844;7.978;2023-12-20T04:58:42;6.80;;;1.88;;
77876;SDS011;67251;50.844;7.978;2023-12-20T05:01:08;6.78;;;1.98;;
77876;SDS011;67251;50.844;7.978;2023-12-20T05:03:34;7.43;;;2.08;;
77876;SDS011;67251;50.844;7.978;2023-12-20T05:05:59;4.32;;;1.83;;
77876;SDS011;67251;50.844;7.978;2023-12-20T05:08:24;6.20;;;1.75;;
77876;SDS011;67251;50.844;7.978;2023-12-20T05:10:50;5.32;;;1.63;;
77876;SDS011;67251;50.844;7.978;2023-12-20T05:13:16;6.32;;;1.67;;
77876;SDS011;67251;50.844;7.978;2023-12-20T05:15:42;4.38;;;1.27;;
77876;SDS011;67251;50.844;7.978;2023-12-20T05:18:07;3.65;;;1.30;;
77876;SDS011;67251;50.844;7.978;2023-12-20T05:20:33;7.20;;;1.80;;
77876;SDS011;67251;50.844;7.978;2023-12-20T05:22:58;8.45;;;2.00;;
77876;SDS011;67251;50.844;7.978;2023-12-20T05:25:23;5.18;;;1.70;;
77876;SDS011;67251;50.844;7.978;2023-12-20T05:27:50;9.55;;;2.00;;
77876;SDS011;67251;50.844;7.978;2023-12-20T05:30:16;7.95;;;2.10;;
77876;SDS011;67251;50.844;7.978;2023-12-20T05:32:41;6.32;;;1.88;;
77876;SDS011;67251;50.844;7.978;2023-12-20T05:35:06;4.35;;;1.63;;
77876;SDS011;67251;50.844;7.978;2023-12-20T05:37:32;5.85;;;1.75;;
77876;SDS011;67251;50.844;7.978;2023-12-20T05:39:57;6.95;;;1.65;;
77876;SDS011;67251;50.844;7.978;2023-12-20T05:42:23;6.47;;;1.80;;
77876;SDS011;67251;50.844;7.978;2023-12-20T05:44:48;6.20;;;1.70;;
77876;SDS011;67251;50.844;7.978;2023-12-20T05:47:13;6.70;;;1.80;;
77876;SDS011;67251;50.844;7.978;2023-12-20T05:49:39;7.00;;;1.73;;
77876;SDS011;67251;50.844;7.978;2023-12-20T05:52:04;4.97;;;1.25;;
77876;SDS011;67251;50.844;7.978;2023-12-20T05:54:30;2.90;;;1.17;;
77876;SDS011;67251;50.844;7.978;2023-12-20T05:56:55;5.07;;;1.90;;
77876;SDS011;67251;50.844;7.978;2023-12-20T05:59:21;2.97;;;1.10;;
77876;SDS011;67251;50.844;7.978;2023-12-20T06:01:46;3.97;;;1.40;;
77876;SDS011;67251;50.844;7.978;2023-12-20T06:04:11;3.67;;;1.15;;
77876;SDS011;67251;50.844;7.978;2023-12-20T06:06:40;8.18;;;1.77;;
77876;SDS011;67251;50.844;7.978;2023-12-20T06:09:07;9.07;;;1.60;;
77876;SDS011;67251;50.844;7.978;2023-12-20T06:11:32;4.47;;;1.65;;
77876;SDS011;67251;50.844;7.978;2023-12-20T06:13:57;7.78;;;1.83;;
77876;SDS011;67251;50.844;7.978;2023-12-20T06:16:23;6.72;;;1.48;;
77876;SDS011;67251;50.844;7.978;2023-12-20T06:18:48;6.80;;;1.90;;
77876;SDS011;67251;50.844;7.978;2023-12-20T06:21:13;6.40;;;1.92;;
77876;SDS011;67251;50.844;7.978;2023-12-20T06:23:39;5.22;;;1.67;;
77876;SDS011;67251;50.844;7.978;2023-12-20T06:26:04;6.95;;;1.67;;
77876;SDS011;67251;50.844;7.978;2023-12-20T06:28:30;5.78;;;2.03;;
77876;SDS011;67251;50.844;7.978;2023-12-20T06:30:55;7.93;;;1.95;;
77876;SDS011;67251;50.844;7.978;2023-12-20T06:33:22;6.35;;;2.13;;
77876;SDS011;67251;50.844;7.978;2023-12-20T06:35:47;7.95;;;2.13;;
77876;SDS011;67251;50.844;7.978;2023-12-20T06:38:13;8.77;;;2.20;;
77876;SDS011;67251;50.844;7.978;2023-12-20T06:40:38;4.65;;;1.90;;
77876;SDS011;67251;50.844;7.978;2023-12-20T06:43:04;6.35;;;1.75;;
77876;SDS011;67251;50.844;7.978;2023-12-20T06:45:29;8.10;;;1.50;;
77876;SDS011;67251;50.844;7.978;2023-12-20T06:47:54;5.30;;;1.80;;
77876;SDS011;67251;50.844;7.978;2023-12-20T06:50:20;9.77;;;2.00;;
77876;SDS011;67251;50.844;7.978;2023-12-20T06:52:45;5.45;;;2.10;;
77876;SDS011;67251;50.844;7.978;2023-12-20T06:55:11;8.80;;;2.45;;
77876;SDS011;67251;50.844;7.978;2023-12-20T06:57:36;8.32;;;2.10;;
77876;SDS011;67251;50.844;7.978;2023-12-20T07:00:02;5.43;;;2.13;;
77876;SDS011;67251;50.844;7.978;2023-12-20T07:02:28;12.05;;;2.47;;
77876;SDS011;67251;50.844;7.978;2023-12-20T07:04:55;7.78;;;1.85;;
77876;SDS011;67251;50.844;7.978;2023-12-20T07:07:20;10.98;;;2.20;;
77876;SDS011;67251;50.844;7.978;2023-12-20T07:09:48;8.50;;;2.50;;
77876;SDS011;67251;50.844;7.978;2023-12-20T07:12:13;6.13;;;1.65;;
77876;SDS011;67251;50.844;7.978;2023-12-20T07:14:39;7.97;;;2.20;;
77876;SDS011;67251;50.844;7.978;2023-12-20T07:17:04;5.00;;;1.60;;
77876;SDS011;67251;50.844;7.978;2023-12-20T07:19:30;8.18;;;1.90;;
77876;SDS011;67251;50.844;7.978;2023-12-20T07:21:55;4.43;;;1.40;;
77876;SDS011;67251;50.844;7.978;2023-12-20T07:24:20;6.93;;;1.67;;
77876;SDS011;67251;50.844;7.978;2023-12-20T07:26:46;6.93;;;1.88;;
77876;SDS011;67251;50.844;7.978;2023-12-20T07:29:11;5.63;;;1.85;;
77876;SDS011;67251;50.844;7.978;2023-12-20T07:31:37;10.60;;;2.95;;
77876;SDS011;67251;50.844;7.978;2023-12-20T07:34:03;5.07;;;1.65;;
77876;SDS011;67251;50.844;7.978;2023-12-20T07:36:28;4.97;;;2.00;;
77876;SDS011;67251;50.844;7.978;2023-12-20T07:38:54;6.82;;;2.60;;
77876;SDS011;67251;50.844;7.978;2023-12-20T07:41:19;10.18;;;2.28;;
77876;SDS011;67251;50.844;7.978;2023-12-20T07:43:46;4.82;;;1.75;;
77876;SDS011;67251;50.844;7.978;2023-12-20T07:46:12;8.27;;;2.03;;
77876;SDS011;67251;50.844;7.978;2023-12-20T07:48:37;6.90;;;2.00;;
77876;SDS011;67251;50.844;7.978;2023-12-20T07:51:06;6.60;;;2.55;;
77876;SDS011;67251;50.844;7.978;2023-12-20T07:53:34;5.88;;;2.15;;
77876;SDS011;67251;50.844;7.978;2023-12-20T07:56:00;7.97;;;2.20;;
77876;SDS011;67251;50.844;7.978;2023-12-20T07:58:26;6.47;;;2.28;;
77876;SDS011;67251;50.844;7.978;2023-12-20T08:00:51;5.38;;;2.75;;
77876;SDS011;67251;50.844;7.978;2023-12-20T08:03:16;7.05;;;2.15;;
77876;SDS011;67251;50.844;7.978;2023-12-20T08:05:42;5.93;;;2.45;;
77876;SDS011;67251;50.844;7.978;2023-12-20T08:08:07;6.05;;;1.52;;
77876;SDS011;67251;50.844;7.978;2023-12-20T08:10:32;5.60;;;2.55;;
77876;SDS011;67251;50.844;7.978;2023-12-20T08:12:58;4.70;;;1.80;;
77876;SDS011;67251;50.844;7.978;2023-12-20T08:15:23;8.90;;;2.65;;
77876;SDS011;67251;50.844;7.978;2023-12-20T08:17:49;7.10;;;2.15;;
77876;SDS011;67251;50.844;7.978;2023-12-20T08:20:17;7.70;;;2.03;;
77876;SDS011;67251;50.844;7.978;2023-12-20T08:22:43;5.88;;;1.92;;
77876;SDS011;67251;50.844;7.978;2023-12-20T08:25:08;7.93;;;2.53;;
77876;SDS011;67251;50.844;7.978;2023-12-20T08:27:36;8.15;;;2.53;;
77876;SDS011;67251;50.844;7.978;2023-12-20T08:30:04;8.40;;;1.92;;
77876;SDS011;67251;50.844;7.978;2023-12-20T08:32:30;12.93;;;3.08;;
77876;SDS011;67251;50.844;7.978;2023-12-20T08:34:57;6.80;;;2.65;;
77876;SDS011;67251;50.844;7.978;2023-12-20T08:37:22;10.90;;;2.13;;
77876;SDS011;67251;50.844;7.978;2023-12-20T08:39:48;8.38;;;2.35;;
77876;SDS011;67251;50.844;7.978;2023-12-20T08:42:13;6.70;;;2.50;;
77876;SDS011;67251;50.844;7.978;2023-12-20T08:44:38;10.10;;;2.60;;
77876;SDS011;67251;50.844;7.978;2023-12-20T08:47:04;12.20;;;2.67;;
77876;SDS011;67251;50.844;7.978;2023-12-20T08:49:29;7.07;;;2.58;;
77876;SDS011;67251;50.844;7.978;2023-12-20T08:51:55;8.77;;;2.90;;
77876;SDS011;67251;50.844;7.978;2023-12-20T08:54:20;6.30;;;2.15;;
77876;SDS011;67251;50.844;7.978;2023-12-20T08:56:45;13.45;;;3.00;;
77876;SDS011;67251;50.844;7.978;2023-12-20T08:59:11;8.75;;;2.38;;
77876;SDS011;67251;50.844;7.978;2023-12-20T09:01:37;8.15;;;2.20;;
77876;SDS011;67251;50.844;7.978;2023-12-20T09:04:02;9.20;;;2.88;;
77876;SDS011;67251;50.844;7.978;2023-12-20T09:06:28;7.07;;;1.92;;
77876;SDS011;67251;50.844;7.978;2023-12-20T09:08:53;12.02;;;3.03;;
77876;SDS011;67251;50.844;7.978;2023-12-20T09:11:19;7.80;;;2.15;;
77876;SDS011;67251;50.844;7.978;2023-12-20T09:13:44;10.38;;;2.95;;
77876;SDS011;67251;50.844;7.978;2023-12-20T09:16:10;7.45;;;1.92;;
77876;SDS011;67251;50.844;7.978;2023-12-20T09:18:35;12.13;;;2.67;;
77876;SDS011;67251;50.844;7.978;2023-12-20T09:21:01;9.43;;;2.13;;
77876;SDS011;67251;50.844;7.978;2023-12-20T09:23:27;9.55;;;2.25;;
77876;SDS011;67251;50.844;7.978;2023-12-20T09:25:52;5.95;;;2.17;;
77876;SDS011;67251;50.844;7.978;2023-12-20T09:28:18;6.47;;;2.70;;
77876;SDS011;67251;50.844;7.978;2023-12-20T09:30:44;9.20;;;2.55;;
77876;SDS011;67251;50.844;7.978;2023-12-20T09:33:11;7.13;;;2.25;;
77876;SDS011;67251;50.844;7.978;2023-12-20T09:35:37;7.78;;;2.25;;
77876;SDS011;67251;50.844;7.978;2023-12-20T09:38:02;11.52;;;2.97;;
77876;SDS011;67251;50.844;7.978;2023-12-20T09:40:28;9.18;;;2.10;;
77876;SDS011;67251;50.844;7.978;2023-12-20T09:42:56;10.77;;;2.53;;
77876;SDS011;67251;50.844;7.978;2023-12-20T09:45:23;10.38;;;2.67;;
77876;SDS011;67251;50.844;7.978;2023-12-20T09:47:49;6.63;;;2.25;;
77876;SDS011;67251;50.844;7.978;2023-12-20T09:50:19;7.70;;;2.00;;
77876;SDS011;67251;50.844;7.978;2023-12-20T09:52:47;6.65;;;2.00;;
77876;SDS011;67251;50.844;7.978;2023-12-20T09:57:42;7.13;;;1.90;;
77876;SDS011;67251;50.844;7.978;2023-12-20T10:00:07;16.15;;;2.75;;
77876;SDS011;67251;50.844;7.978;2023-12-20T10:02:33;11.65;;;2.38;;
77876;SDS011;67251;50.844;7.978;2023-12-20T10:05:03;8.10;;;2.42;;
77876;SDS011;67251;50.844;7.978;2023-12-20T10:07:34;9.70;;;2.10;;
77876;SDS011;67251;50.844;7.978;2023-12-20T10:10:00;15.40;;;2.10;;
77876;SDS011;67251;50.844;7.978;2023-12-20T10:12:27;8.25;;;2.63;;
77876;SDS011;67251;50.844;7.978;2023-12-20T10:14:52;11.38;;;2.60;;
77876;SDS011;67251;50.844;7.978;2023-12-20T10:17:18;10.07;;;2.55;;
77876;SDS011;67251;50.844;7.978;2023-12-20T10:19:43;7.97;;;2.17;;
77876;SDS011;67251;50.844;7.978;2023-12-20T10:22:08;11.00;;;1.80;;
77876;SDS011;67251;50.844;7.978;2023-12-20T10:24:35;5.63;;;2.05;;
77876;SDS011;67251;50.844;7.978;2023-12-20T10:27:07;7.22;;;2.50;;
77876;SDS011;67251;50.844;7.978;2023-12-20T10:29:33;6.55;;;1.80;;
77876;SDS011;67251;50.844;7.978;2023-12-20T10:32:00;9.18;;;2.35;;
77876;SDS011;67251;50.844;7.978;2023-12-20T10:34:45;7.03;;;1.65;;
77876;SDS011;67251;50.844;7.978;2023-12-20T10:37:10;4.82;;;1.50;;
77876;SDS011;67251;50.844;7.978;2023-12-20T10:39:35;11.15;;;2.50;;
77876;SDS011;67251;50.844;7.978;2023-12-20T10:42:01;3.95;;;1.65;;
77876;SDS011;67251;50.844;7.978;2023-12-20T10:44:28;7.03;;;2.40;;
77876;SDS011;67251;50.844;7.978;2023-12-20T10:46:53;7.25;;;2.13;;
77876;SDS011;67251;50.844;7.978;2023-12-20T10:51:49;7.00;;;1.20;;
77876;SDS011;67251;50.844;7.978;2023-12-20T10:54:17;7.68;;;2.05;;
77876;SDS011;67251;50.844;7.978;2023-12-20T10:56:42;12.32;;;2.33;;
77876;SDS011;67251;50.844;7.978;2023-12-20T10:59:08;6.53;;;1.85;;
77876;SDS011;67251;50.844;7.978;2023-12-20T11:01:36;6.97;;;2.13;;
77876;SDS011;67251;50.844;7.978;2023-12-20T11:04:03;5.53;;;1.60;;
77876;SDS011;67251;50.844;7.978;2023-12-20T11:06:40;8.65;;;1.92;;
77876;SDS011;67251;50.844;7.978;2023-12-20T11:09:14;6.32;;;2.05;;
77876;SDS011;67251;50.844;7.978;2023-12-20T11:12:05;9.15;;;2.00;;
77876;SDS011;67251;50.844;7.978;2023-12-20T11:14:48;9.60;;;1.65;;
77876;SDS011;67251;50.844;7.978;2023-12-20T11:17:16;6.55;;;1.33;;
77876;SDS011;67251;50.844;7.978;2023-12-20T11:22:17;7.63;;;1.92;;
77876;SDS011;67251;50.844;7.978;2023-12-20T11:24:44;8.68;;;1.90;;
77876;SDS011;67251;50.844;7.978;2023-12-20T11:27:10;10.25;;;2.67;;
77876;SDS011;67251;50.844;7.978;2023-12-20T11:29:36;4.93;;;1.98;;
77876;SDS011;67251;50.844;7.978;2023-12-20T11:32:27;10.30;;;2.00;;
77876;SDS011;67251;50.844;7.978;2023-12-20T11:35:39;7.05;;;1.88;;
77876;SDS011;67251;50.844;7.978;2023-12-20T11:37:39;7.65;;;2.22;;
77876;SDS011;67251;50.844;7.978;2023-12-20T11:40:11;5.95;;;1.77;;
77876;SDS011;67251;50.844;7.978;2023-12-20T11:42:39;7.57;;;2.30;;
77876;SDS011;67251;50.844;7.978;2023-12-20T11:45:10;6.78;;;2.20;;
77876;SDS011;67251;50.844;7.978;2023-12-20T11:47:40;8.48;;;2.13;;
77876;SDS011;67251;50.844;7.978;2023-12-20T11:50:05;7.75;;;2.10;;
77876;SDS011;67251;50.844;7.978;2023-12-20T11:52:31;4.35;;;1.63;;
77876;SDS011;67251;50.844;7.978;2023-12-20T11:54:57;5.47;;;1.58;;
77876;SDS011;67251;50.844;7.978;2023-12-20T11:57:22;7.32;;;1.73;;
77876;SDS011;67251;50.844;7.978;2023-12-20T11:59:48;7.40;;;1.75;;
77876;SDS011;67251;50.844;7.978;2023-12-20T12:02:13;4.20;;;1.30;;
77876;SDS011;67251;50.844;7.978;2023-12-20T12:04:41;4.97;;;1.52;;
77876;SDS011;67251;50.844;7.978;2023-12-20T12:07:06;7.00;;;1.80;;
77876;SDS011;67251;50.844;7.978;2023-12-20T12:09:32;6.78;;;2.05;;
77876;SDS011;67251;50.844;7.978;2023-12-20T12:11:57;9.52;;;2.03;;
77876;SDS011;67251;50.844;7.978;2023-12-20T12:14:23;6.75;;;1.92;;
77876;SDS011;67251;50.844;7.978;2023-12-20T12:16:49;5.90;;;1.88;;
77876;SDS011;67251;50.844;7.978;2023-12-20T12:19:25;7.25;;;1.42;;
77876;SDS011;67251;50.844;7.978;2023-12-20T12:22:03;4.32;;;1.33;;
77876;SDS011;67251;50.844;7.978;2023-12-20T12:24:33;6.13;;;2.15;;
77876;SDS011;67251;50.844;7.978;2023-12-20T12:26:59;5.97;;;1.27;;
77876;SDS011;67251;50.844;7.978;2023-12-20T12:29:24;7.43;;;1.70;;
77876;SDS011;67251;50.844;7.978;2023-12-20T12:31:50;6.63;;;1.42;;
77876;SDS011;67251;50.844;7.978;2023-12-20T12:34:16;6.43;;;1.30;;
77876;SDS011;67251;50.844;7.978;2023-12-20T12:36:42;6.47;;;2.00;;
77876;SDS011;67251;50.844;7.978;2023-12-20T12:39:14;5.88;;;1.85;;
77876;SDS011;67251;50.844;7.978;2023-12-20T12:41:42;5.78;;;1.77;;
77876;SDS011;67251;50.844;7.978;2023-12-20T12:44:08;6.88;;;1.98;;
77876;SDS011;67251;50.844;7.978;2023-12-20T12:46:33;6.38;;;2.10;;
77876;SDS011;67251;50.844;7.978;2023-12-20T12:49:01;3.63;;;1.02;;
77876;SDS011;67251;50.844;7.978;2023-12-20T12:51:26;7.35;;;2.30;;
77876;SDS011;67251;50.844;7.978;2023-12-20T12:53:53;9.93;;;2.67;;
77876;SDS011;67251;50.844;7.978;2023-12-20T12:56:18;4.97;;;1.60;;
77876;SDS011;67251;50.844;7.978;2023-12-20T12:58:43;5.05;;;1.63;;
77876;SDS011;67251;50.844;7.978;2023-12-20T13:01:09;6.90;;;2.55;;
77876;SDS011;67251;50.844;7.978;2023-12-20T13:03:35;6.03;;;2.60;;
77876;SDS011;67251;50.844;7.978;2023-12-20T13:06:01;12.18;;;2.42;;
77876;SDS011;67251;50.844;7.978;2023-12-20T13:08:26;7.80;;;2.17;;
77876;SDS011;67251;50.844;7.978;2023-12-20T13:10:53;7.70;;;2.72;;
77876;SDS011;67251;50.844;7.978;2023-12-20T13:13:19;6.13;;;1.83;;
77876;SDS011;67251;50.844;7.978;2023-12-20T13:15:44;7.25;;;2.40;;
77876;SDS011;67251;50.844;7.978;2023-12-20T13:18:17;8.05;;;1.85;;
77876;SDS011;67251;50.844;7.978;2023-12-20T13:20:44;5.65;;;1.90;;
77876;SDS011;67251;50.844;7.978;2023-12-20T13:23:10;5.35;;;1.77;;
77876;SDS011;67251;50.844;7.978;2023-12-20T13:25:35;7.38;;;2.60;;
77876;SDS011;67251;50.844;7.978;2023-12-20T13:28:01;7.40;;;1.60;;
77876;SDS011;67251;50.844;7.978;2023-12-20T13:30:27;8.32;;;2.50;;
77876;SDS011;67251;50.844;7.978;2023-12-20T13:32:53;5.22;;;2.30;;
77876;SDS011;67251;50.844;7.978;2023-12-20T13:35:18;10.60;;;1.95;;
77876;SDS011;67251;50.844;7.978;2023-12-20T13:37:44;5.22;;;2.00;;
77876;SDS011;67251;50.844;7.978;2023-12-20T13:40:09;6.78;;;2.42;;
77876;SDS011;67251;50.844;7.978;2023-12-20T13:42:35;9.38;;;2.65;;
77876;SDS011;67251;50.844;7.978;2023-12-20T13:45:00;8.38;;;2.47;;
77876;SDS011;67251;50.844;7.978;2023-12-20T13:47:26;6.65;;;2.30;;
77876;SDS011;67251;50.844;7.978;2023-12-20T13:49:51;7.78;;;2.40;;
77876;SDS011;67251;50.844;7.978;2023-12-20T13:52:17;6.90;;;2.70;;
77876;SDS011;67251;50.844;7.978;2023-12-20T13:54:43;10.65;;;2.47;;
77876;SDS011;67251;50.844;7.978;2023-12-20T13:57:09;6.57;;;2.03;;
77876;SDS011;67251;50.844;7.978;2023-12-20T13:59:34;6.43;;;1.73;;
77876;SDS011;67251;50.844;7.978;2023-12-20T14:02:00;9.80;;;2.20;;
77876;SDS011;67251;50.844;7.978;2023-12-20T14:04:26;5.90;;;1.77;;
77876;SDS011;67251;50.844;7.978;2023-12-20T14:06:51;3.65;;;1.55;;
77876;SDS011;67251;50.844;7.978;2023-12-20T14:09:17;4.18;;;1.40;;
77876;SDS011;67251;50.844;7.978;2023-12-20T14:11:42;5.78;;;1.95;;
77876;SDS011;67251;50.844;7.978;2023-12-20T14:14:08;7.20;;;1.98;;
77876;SDS011;67251;50.844;7.978;2023-12-20T14:16:33;6.82;;;2.05;;
77876;SDS011;67251;50.844;7.978;2023-12-20T14:19:00;6.60;;;1.95;;
77876;SDS011;67251;50.844;7.978;2023-12-20T14:21:25;6.82;;;1.92;;
77876;SDS011;67251;50.844;7.978;2023-12-20T14:23:50;4.30;;;1.48;;
77876;SDS011;67251;50.844;7.978;2023-12-20T14:26:17;6.18;;;2.00;;
77876;SDS011;67251;50.844;7.978;2023-12-20T14:28:42;6.47;;;1.70;;
77876;SDS011;67251;50.844;7.978;2023-12-20T14:31:08;5.00;;;1.73;;
77876;SDS011;67251;50.844;7.978;2023-12-20T14:33:35;10.73;;;2.97;;
77876;SDS011;67251;50.844;7.978;2023-12-20T14:36:00;9.82;;;2.50;;
77876;SDS011;67251;50.844;7.978;2023-12-20T14:38:26;8.15;;;2.70;;
77876;SDS011;67251;50.844;7.978;2023-12-20T14:40:52;9.10;;;2.38;;
77876;SDS011;67251;50.844;7.978;2023-12-20T14:43:18;9.98;;;2.58;;
77876;SDS011;67251;50.844;7.978;2023-12-20T14:45:43;5.85;;;2.22;;
77876;SDS011;67251;50.844;7.978;2023-12-20T14:48:10;5.85;;;2.20;;
77876;SDS011;67251;50.844;7.978;2023-12-20T14:50:35;5.07;;;1.80;;